sensor_id;sensor_type;location;lat;lon;timestamp;temperature;humidity
14095;DHT22;18096;48.142;16.290;2023-07-20T00:01:23;23.70;77.90
14095;DHT22;18096;48.142;16.290;2023-07-20T00:03:48;23.70;78.10
14095;DHT22;18096;48.142;16.290;2023-07-20T00:06:20;23.70;78.20
14095;DHT22;18096;48.142;16.290;2023-07-20T00:08:46;23.70;78.30
14095;DHT22;18096;48.142;16.290;2023-07-20T00:11:12;23.60;78.40
14095;DHT22;18096;48.142;16.290;2023-07-20T00:13:39;23.60;78.50
14095;DHT22;18096;48.142;16.290;2023-07-20T00:16:05;23.60;78.60
14095;DHT22;18096;48.142;16.290;2023-07-20T00:18:31;23.50;78.60
14095;DHT22;18096;48.142;16.290;2023-07-20T00:20:56;23.50;78.70
14095;DHT22;18096;48.142;16.290;2023-07-20T00:23:22;23.50;79.00
14095;DHT22;18096;48.142;16.290;2023-07-20T00:25:48;23.50;78.90
14095;DHT22;18096;48.142;16.290;2023-07-20T00:28:14;23.50;78.90
14095;DHT22;18096;48.142;16.290;2023-07-20T00:30:40;23.40;78.90
14095;DHT22;18096;48.142;16.290;2023-07-20T00:33:09;23.40;79.10
14095;DHT22;18096;48.142;16.290;2023-07-20T00:35:35;23.40;79.10
14095;DHT22;18096;48.142;16.290;2023-07-20T00:38:01;23.40;79.00
14095;DHT22;18096;48.142;16.290;2023-07-20T00:40:27;23.40;79.20
14095;DHT22;18096;48.142;16.290;2023-07-20T00:42:53;23.40;79.30
14095;DHT22;18096;48.142;16.290;2023-07-20T00:45:19;23.40;79.50
14095;DHT22;18096;48.142;16.290;2023-07-20T00:47:44;23.40;79.80
14095;DHT22;18096;48.142;16.290;2023-07-20T00:50:10;23.40;80.10
14095;DHT22;18096;48.142;16.290;2023-07-20T00:52:37;23.40;80.30
14095;DHT22;18096;48.142;16.290;2023-07-20T00:55:07;23.40;80.60
14095;DHT22;18096;48.142;16.290;2023-07-20T00:57:34;23.40;81.10
14095;DHT22;18096;48.142;16.290;2023-07-20T01:00:00;23.40;81.10
14095;DHT22;18096;48.142;16.290;2023-07-20T01:02:25;23.40;81.50
14095;DHT22;18096;48.142;16.290;2023-07-20T01:04:51;23.40;81.50
14095;DHT22;18096;48.142;16.290;2023-07-20T01:13:01;23.60;81.50
14095;DHT22;18096;48.142;16.290;2023-07-20T01:15:28;23.60;81.40
14095;DHT22;18096;48.142;16.290;2023-07-20T01:17:54;23.70;81.60
14095;DHT22;18096;48.142;16.290;2023-07-20T01:20:20;23.70;81.60
14095;DHT22;18096;48.142;16.290;2023-07-20T01:31:28;23.80;81.00
14095;DHT22;18096;48.142;16.290;2023-07-20T01:33:57;23.80;80.60
14095;DHT22;18096;48.142;16.290;2023-07-20T01:36:29;23.80;80.60
14095;DHT22;18096;48.142;16.290;2023-07-20T01:38:56;23.80;80.50
14095;DHT22;18096;48.142;16.290;2023-07-20T01:41:22;23.80;80.50
14095;DHT22;18096;48.142;16.290;2023-07-20T01:43:47;23.80;80.60
14095;DHT22;18096;48.142;16.290;2023-07-20T01:46:13;23.80;80.90
14095;DHT22;18096;48.142;16.290;2023-07-20T01:48:39;23.80;81.10
14095;DHT22;18096;48.142;16.290;2023-07-20T01:51:05;23.80;81.30
14095;DHT22;18096;48.142;16.290;2023-07-20T01:53:31;23.70;81.30
14095;DHT22;18096;48.142;16.290;2023-07-20T01:55:57;23.80;81.60
14095;DHT22;18096;48.142;16.290;2023-07-20T01:58:23;23.80;81.80
14095;DHT22;18096;48.142;16.290;2023-07-20T02:00:50;23.70;81.60
14095;DHT22;18096;48.142;16.290;2023-07-20T02:03:15;23.80;81.80
14095;DHT22;18096;48.142;16.290;2023-07-20T02:05:44;23.70;81.80
14095;DHT22;18096;48.142;16.290;2023-07-20T02:08:10;23.80;82.00
14095;DHT22;18096;48.142;16.290;2023-07-20T02:10:36;23.70;81.90
14095;DHT22;18096;48.142;16.290;2023-07-20T02:13:01;23.70;82.10
14095;DHT22;18096;48.142;16.290;2023-07-20T02:15:27;23.70;82.30
14095;DHT22;18096;48.142;16.290;2023-07-20T02:17:54;23.60;82.20
14095;DHT22;18096;48.142;16.290;2023-07-20T02:20:20;23.70;82.50
14095;DHT22;18096;48.142;16.290;2023-07-20T02:22:46;23.60;82.30
14095;DHT22;18096;48.142;16.290;2023-07-20T02:25:11;23.60;82.50
14095;DHT22;18096;48.142;16.290;2023-07-20T02:27:38;23.60;82.60
14095;DHT22;18096;48.142;16.290;2023-07-20T02:30:04;23.50;82.50
14095;DHT22;18096;48.142;16.290;2023-07-20T02:32:30;23.50;82.60
14095;DHT22;18096;48.142;16.290;2023-07-20T02:34:57;23.50;82.50
14095;DHT22;18096;48.142;16.290;2023-07-20T02:37:23;23.50;82.60
14095;DHT22;18096;48.142;16.290;2023-07-20T02:39:48;23.50;82.70
14095;DHT22;18096;48.142;16.290;2023-07-20T02:42:14;23.50;82.80
14095;DHT22;18096;48.142;16.290;2023-07-20T02:44:39;23.50;82.90
14095;DHT22;18096;48.142;16.290;2023-07-20T02:47:05;23.50;83.10
14095;DHT22;18096;48.142;16.290;2023-07-20T02:49:31;23.50;83.20
14095;DHT22;18096;48.142;16.290;2023-07-20T02:51:57;23.50;83.30
14095;DHT22;18096;48.142;16.290;2023-07-20T02:54:22;23.50;83.50
14095;DHT22;18096;48.142;16.290;2023-07-20T02:56:48;23.40;83.50
14095;DHT22;18096;48.142;16.290;2023-07-20T02:59:14;23.40;83.50
14095;DHT22;18096;48.142;16.290;2023-07-20T03:01:40;23.40;83.40
14095;DHT22;18096;48.142;16.290;2023-07-20T03:04:07;23.30;83.20
14095;DHT22;18096;48.142;16.290;2023-07-20T03:06:36;23.30;83.20
14095;DHT22;18096;48.142;16.290;2023-07-20T03:09:02;23.30;83.10
14095;DHT22;18096;48.142;16.290;2023-07-20T03:11:28;23.30;83.20
14095;DHT22;18096;48.142;16.290;2023-07-20T03:13:53;23.30;83.10
14095;DHT22;18096;48.142;16.290;2023-07-20T03:16:19;23.30;83.10
14095;DHT22;18096;48.142;16.290;2023-07-20T03:18:45;23.30;83.00
14095;DHT22;18096;48.142;16.290;2023-07-20T03:21:11;23.30;83.00
14095;DHT22;18096;48.142;16.290;2023-07-20T03:23:38;23.30;83.00
14095;DHT22;18096;48.142;16.290;2023-07-20T03:26:03;23.20;83.00
14095;DHT22;18096;48.142;16.290;2023-07-20T03:28:29;23.20;83.00
14095;DHT22;18096;48.142;16.290;2023-07-20T03:30:56;23.20;82.90
14095;DHT22;18096;48.142;16.290;2023-07-20T03:33:27;23.20;83.00
14095;DHT22;18096;48.142;16.290;2023-07-20T03:35:53;23.20;83.20
14095;DHT22;18096;48.142;16.290;2023-07-20T03:38:20;23.20;83.20
14095;DHT22;18096;48.142;16.290;2023-07-20T03:40:52;23.20;83.40
14095;DHT22;18096;48.142;16.290;2023-07-20T03:43:18;23.20;84.30
14095;DHT22;18096;48.142;16.290;2023-07-20T03:45:44;23.20;84.50
14095;DHT22;18096;48.142;16.290;2023-07-20T03:48:17;23.10;83.90
14095;DHT22;18096;48.142;16.290;2023-07-20T03:50:48;23.10;83.90
14095;DHT22;18096;48.142;16.290;2023-07-20T03:53:14;23.00;84.20
14095;DHT22;18096;48.142;16.290;2023-07-20T03:55:41;23.00;84.00
14095;DHT22;18096;48.142;16.290;2023-07-20T03:58:07;23.00;84.00
14095;DHT22;18096;48.142;16.290;2023-07-20T04:00:34;23.00;84.30
14095;DHT22;18096;48.142;16.290;2023-07-20T04:03:00;23.10;85.20
14095;DHT22;18096;48.142;16.290;2023-07-20T04:05:26;23.10;85.70
14095;DHT22;18096;48.142;16.290;2023-07-20T04:07:52;23.10;85.50
14095;DHT22;18096;48.142;16.290;2023-07-20T04:10:18;23.10;85.50
14095;DHT22;18096;48.142;16.290;2023-07-20T04:12:45;23.10;85.80
14095;DHT22;18096;48.142;16.290;2023-07-20T04:15:12;23.20;86.20
14095;DHT22;18096;48.142;16.290;2023-07-20T04:17:38;23.20;86.20
14095;DHT22;18096;48.142;16.290;2023-07-20T04:20:05;23.20;86.20
14095;DHT22;18096;48.142;16.290;2023-07-20T04:22:31;23.20;86.40
14095;DHT22;18096;48.142;16.290;2023-07-20T04:24:57;23.20;86.20
14095;DHT22;18096;48.142;16.290;2023-07-20T04:27:22;23.20;86.80
14095;DHT22;18096;48.142;16.290;2023-07-20T04:29:48;23.20;86.50
14095;DHT22;18096;48.142;16.290;2023-07-20T04:32:14;23.20;86.30
14095;DHT22;18096;48.142;16.290;2023-07-20T04:34:39;23.10;86.30
14095;DHT22;18096;48.142;16.290;2023-07-20T04:37:05;23.10;86.70
14095;DHT22;18096;48.142;16.290;2023-07-20T04:39:31;23.10;87.00
14095;DHT22;18096;48.142;16.290;2023-07-20T04:41:57;23.10;87.10
14095;DHT22;18096;48.142;16.290;2023-07-20T04:44:23;23.10;88.00
14095;DHT22;18096;48.142;16.290;2023-07-20T04:46:48;23.20;87.70
14095;DHT22;18096;48.142;16.290;2023-07-20T04:49:14;23.20;89.10
14095;DHT22;18096;48.142;16.290;2023-07-20T04:51:40;23.20;89.20
14095;DHT22;18096;48.142;16.290;2023-07-20T04:54:05;23.30;89.30
14095;DHT22;18096;48.142;16.290;2023-07-20T04:56:31;23.30;89.10
14095;DHT22;18096;48.142;16.290;2023-07-20T04:58:57;23.40;89.60
14095;DHT22;18096;48.142;16.290;2023-07-20T05:01:23;23.50;89.50
14095;DHT22;18096;48.142;16.290;2023-07-20T05:03:48;23.50;89.80
14095;DHT22;18096;48.142;16.290;2023-07-20T05:06:15;23.50;90.00
14095;DHT22;18096;48.142;16.290;2023-07-20T05:08:41;23.60;89.20
14095;DHT22;18096;48.142;16.290;2023-07-20T05:11:07;23.60;89.80
14095;DHT22;18096;48.142;16.290;2023-07-20T05:13:33;23.60;89.40
14095;DHT22;18096;48.142;16.290;2023-07-20T05:15:59;23.60;89.80
14095;DHT22;18096;48.142;16.290;2023-07-20T05:18:25;23.60;89.80
14095;DHT22;18096;48.142;16.290;2023-07-20T05:20:51;23.60;89.60
14095;DHT22;18096;48.142;16.290;2023-07-20T05:23:19;23.60;89.30
14095;DHT22;18096;48.142;16.290;2023-07-20T05:25:45;23.60;90.00
14095;DHT22;18096;48.142;16.290;2023-07-20T05:28:11;23.60;90.40
14095;DHT22;18096;48.142;16.290;2023-07-20T05:30:36;23.70;90.00
14095;DHT22;18096;48.142;16.290;2023-07-20T05:33:02;23.70;90.10
14095;DHT22;18096;48.142;16.290;2023-07-20T05:35:27;23.70;90.10
14095;DHT22;18096;48.142;16.290;2023-07-20T05:37:53;23.70;89.90
14095;DHT22;18096;48.142;16.290;2023-07-20T05:40:19;23.80;90.30
14095;DHT22;18096;48.142;16.290;2023-07-20T05:42:48;23.80;90.30
14095;DHT22;18096;48.142;16.290;2023-07-20T05:45:17;23.90;90.20
14095;DHT22;18096;48.142;16.290;2023-07-20T05:47:43;23.90;90.00
14095;DHT22;18096;48.142;16.290;2023-07-20T05:50:09;24.00;89.30
14095;DHT22;18096;48.142;16.290;2023-07-20T05:52:35;23.90;88.00
14095;DHT22;18096;48.142;16.290;2023-07-20T05:55:00;23.90;88.50
14095;DHT22;18096;48.142;16.290;2023-07-20T05:57:26;23.90;88.00
14095;DHT22;18096;48.142;16.290;2023-07-20T05:59:52;23.90;88.00
14095;DHT22;18096;48.142;16.290;2023-07-20T06:02:17;23.90;87.80
14095;DHT22;18096;48.142;16.290;2023-07-20T06:04:43;23.90;87.70
14095;DHT22;18096;48.142;16.290;2023-07-20T06:07:08;23.90;87.30
14095;DHT22;18096;48.142;16.290;2023-07-20T06:09:34;23.90;87.10
14095;DHT22;18096;48.142;16.290;2023-07-20T06:12:00;23.90;87.10
14095;DHT22;18096;48.142;16.290;2023-07-20T06:14:26;23.90;87.10
14095;DHT22;18096;48.142;16.290;2023-07-20T06:16:52;23.90;87.30
14095;DHT22;18096;48.142;16.290;2023-07-20T06:19:17;24.00;87.00
14095;DHT22;18096;48.142;16.290;2023-07-20T06:21:43;24.00;87.00
14095;DHT22;18096;48.142;16.290;2023-07-20T06:24:09;24.00;86.50
14095;DHT22;18096;48.142;16.290;2023-07-20T06:26:35;24.00;86.80
14095;DHT22;18096;48.142;16.290;2023-07-20T06:29:05;24.00;86.70
14095;DHT22;18096;48.142;16.290;2023-07-20T06:31:34;24.10;86.60
14095;DHT22;18096;48.142;16.290;2023-07-20T06:34:00;24.10;86.50
14095;DHT22;18096;48.142;16.290;2023-07-20T06:36:26;24.20;86.90
14095;DHT22;18096;48.142;16.290;2023-07-20T06:38:52;24.20;85.90
14095;DHT22;18096;48.142;16.290;2023-07-20T06:41:18;24.10;85.90
14095;DHT22;18096;48.142;16.290;2023-07-20T06:43:44;24.00;86.10
14095;DHT22;18096;48.142;16.290;2023-07-20T06:46:10;24.00;86.40
14095;DHT22;18096;48.142;16.290;2023-07-20T06:48:36;24.00;86.90
14095;DHT22;18096;48.142;16.290;2023-07-20T06:51:01;23.90;87.00
14095;DHT22;18096;48.142;16.290;2023-07-20T06:53:28;23.90;87.00
14095;DHT22;18096;48.142;16.290;2023-07-20T06:55:54;23.90;87.00
14095;DHT22;18096;48.142;16.290;2023-07-20T06:58:19;23.90;87.30
14095;DHT22;18096;48.142;16.290;2023-07-20T07:00:47;23.90;87.40
14095;DHT22;18096;48.142;16.290;2023-07-20T07:03:12;23.90;87.60
14095;DHT22;18096;48.142;16.290;2023-07-20T07:05:38;24.00;87.60
14095;DHT22;18096;48.142;16.290;2023-07-20T07:08:07;24.00;87.80
14095;DHT22;18096;48.142;16.290;2023-07-20T07:10:35;24.00;87.80
14095;DHT22;18096;48.142;16.290;2023-07-20T07:13:01;24.10;87.70
14095;DHT22;18096;48.142;16.290;2023-07-20T07:15:27;24.10;87.80
14095;DHT22;18096;48.142;16.290;2023-07-20T07:17:53;24.00;88.00
14095;DHT22;18096;48.142;16.290;2023-07-20T07:20:18;24.10;88.40
14095;DHT22;18096;48.142;16.290;2023-07-20T07:22:44;24.10;87.60
14095;DHT22;18096;48.142;16.290;2023-07-20T07:25:10;24.10;87.00
14095;DHT22;18096;48.142;16.290;2023-07-20T07:27:36;24.00;87.30
14095;DHT22;18096;48.142;16.290;2023-07-20T07:30:05;24.10;87.60
14095;DHT22;18096;48.142;16.290;2023-07-20T07:32:31;24.20;86.60
14095;DHT22;18096;48.142;16.290;2023-07-20T07:34:56;24.20;86.50
14095;DHT22;18096;48.142;16.290;2023-07-20T07:37:24;24.20;86.40
14095;DHT22;18096;48.142;16.290;2023-07-20T07:39:49;24.10;86.50
14095;DHT22;18096;48.142;16.290;2023-07-20T07:42:15;24.10;86.40
14095;DHT22;18096;48.142;16.290;2023-07-20T07:44:41;24.10;86.60
14095;DHT22;18096;48.142;16.290;2023-07-20T07:47:07;24.10;86.60
14095;DHT22;18096;48.142;16.290;2023-07-20T07:49:32;24.10;86.60
14095;DHT22;18096;48.142;16.290;2023-07-20T07:51:58;24.20;86.60
14095;DHT22;18096;48.142;16.290;2023-07-20T07:54:24;24.20;87.00
14095;DHT22;18096;48.142;16.290;2023-07-20T07:56:50;24.20;87.60
14095;DHT22;18096;48.142;16.290;2023-07-20T07:59:16;24.30;87.60
14095;DHT22;18096;48.142;16.290;2023-07-20T08:01:42;24.30;87.60
14095;DHT22;18096;48.142;16.290;2023-07-20T08:04:08;24.40;87.70
14095;DHT22;18096;48.142;16.290;2023-07-20T08:06:33;24.40;88.10
14095;DHT22;18096;48.142;16.290;2023-07-20T08:08:59;24.50;87.10
14095;DHT22;18096;48.142;16.290;2023-07-20T08:11:25;24.50;87.20
14095;DHT22;18096;48.142;16.290;2023-07-20T08:13:51;24.60;86.90
14095;DHT22;18096;48.142;16.290;2023-07-20T08:16:16;24.70;86.90
14095;DHT22;18096;48.142;16.290;2023-07-20T08:18:43;24.70;86.80
14095;DHT22;18096;48.142;16.290;2023-07-20T08:21:08;24.70;86.90
14095;DHT22;18096;48.142;16.290;2023-07-20T08:23:34;24.80;86.50
14095;DHT22;18096;48.142;16.290;2023-07-20T08:26:00;24.80;85.80
14095;DHT22;18096;48.142;16.290;2023-07-20T08:28:26;24.80;85.80
14095;DHT22;18096;48.142;16.290;2023-07-20T08:30:52;24.80;85.90
14095;DHT22;18096;48.142;16.290;2023-07-20T08:33:19;24.80;84.90
14095;DHT22;18096;48.142;16.290;2023-07-20T08:35:46;24.80;84.60
14095;DHT22;18096;48.142;16.290;2023-07-20T08:38:12;24.80;84.40
14095;DHT22;18096;48.142;16.290;2023-07-20T08:40:43;24.90;84.50
14095;DHT22;18096;48.142;16.290;2023-07-20T08:43:11;24.90;84.50
14095;DHT22;18096;48.142;16.290;2023-07-20T08:45:39;25.00;83.60
14095;DHT22;18096;48.142;16.290;2023-07-20T08:48:06;25.10;83.20
14095;DHT22;18096;48.142;16.290;2023-07-20T08:50:32;25.20;81.10
14095;DHT22;18096;48.142;16.290;2023-07-20T08:52:59;25.20;80.50
14095;DHT22;18096;48.142;16.290;2023-07-20T08:55:28;25.30;80.10
14095;DHT22;18096;48.142;16.290;2023-07-20T08:57:55;25.30;80.40
14095;DHT22;18096;48.142;16.290;2023-07-20T09:00:22;25.30;80.80
14095;DHT22;18096;48.142;16.290;2023-07-20T09:02:51;25.40;81.00
14095;DHT22;18096;48.142;16.290;2023-07-20T09:05:17;25.40;79.80
14095;DHT22;18096;48.142;16.290;2023-07-20T09:07:43;25.40;79.10
14095;DHT22;18096;48.142;16.290;2023-07-20T09:10:09;25.40;79.40
14095;DHT22;18096;48.142;16.290;2023-07-20T09:12:37;25.40;79.40
14095;DHT22;18096;48.142;16.290;2023-07-20T09:15:04;25.40;79.50
14095;DHT22;18096;48.142;16.290;2023-07-20T09:17:30;25.50;78.80
14095;DHT22;18096;48.142;16.290;2023-07-20T09:19:55;25.50;79.30
14095;DHT22;18096;48.142;16.290;2023-07-20T09:22:21;25.70;78.30
14095;DHT22;18096;48.142;16.290;2023-07-20T09:24:47;25.70;76.80
14095;DHT22;18096;48.142;16.290;2023-07-20T09:27:13;25.70;76.10
14095;DHT22;18096;48.142;16.290;2023-07-20T09:29:51;25.80;75.80
14095;DHT22;18096;48.142;16.290;2023-07-20T09:32:21;25.90;75.50
14095;DHT22;18096;48.142;16.290;2023-07-20T09:34:49;25.90;75.50
14095;DHT22;18096;48.142;16.290;2023-07-20T09:37:20;26.00;75.20
14095;DHT22;18096;48.142;16.290;2023-07-20T09:39:46;26.00;74.90
14095;DHT22;18096;48.142;16.290;2023-07-20T09:42:13;26.10;74.90
14095;DHT22;18096;48.142;16.290;2023-07-20T09:44:39;26.10;74.60
14095;DHT22;18096;48.142;16.290;2023-07-20T09:47:06;26.20;74.10
14095;DHT22;18096;48.142;16.290;2023-07-20T09:49:32;26.20;74.20
14095;DHT22;18096;48.142;16.290;2023-07-20T09:51:58;26.20;73.80
14095;DHT22;18096;48.142;16.290;2023-07-20T09:54:26;26.20;73.80
14095;DHT22;18096;48.142;16.290;2023-07-20T09:56:52;26.20;73.30
14095;DHT22;18096;48.142;16.290;2023-07-20T09:59:19;26.20;73.70
14095;DHT22;18096;48.142;16.290;2023-07-20T10:01:46;26.30;73.80
14095;DHT22;18096;48.142;16.290;2023-07-20T10:04:14;26.30;74.30
14095;DHT22;18096;48.142;16.290;2023-07-20T10:06:42;26.30;74.60
14095;DHT22;18096;48.142;16.290;2023-07-20T10:09:10;26.20;73.90
14095;DHT22;18096;48.142;16.290;2023-07-20T10:11:43;26.20;74.00
14095;DHT22;18096;48.142;16.290;2023-07-20T10:14:09;26.10;73.70
14095;DHT22;18096;48.142;16.290;2023-07-20T10:16:41;26.20;73.50
14095;DHT22;18096;48.142;16.290;2023-07-20T10:19:47;26.20;72.90
14095;DHT22;18096;48.142;16.290;2023-07-20T10:22:19;26.30;72.40
14095;DHT22;18096;48.142;16.290;2023-07-20T10:24:46;26.30;72.10
14095;DHT22;18096;48.142;16.290;2023-07-20T10:27:13;26.20;72.80
14095;DHT22;18096;48.142;16.290;2023-07-20T10:29:40;26.20;72.00
14095;DHT22;18096;48.142;16.290;2023-07-20T10:32:07;26.30;71.50
14095;DHT22;18096;48.142;16.290;2023-07-20T10:34:33;26.20;71.30
14095;DHT22;18096;48.142;16.290;2023-07-20T10:36:59;26.20;72.60
14095;DHT22;18096;48.142;16.290;2023-07-20T10:39:31;26.30;72.50
14095;DHT22;18096;48.142;16.290;2023-07-20T10:42:14;26.30;72.30
14095;DHT22;18096;48.142;16.290;2023-07-20T10:44:40;26.30;72.30
14095;DHT22;18096;48.142;16.290;2023-07-20T10:47:10;26.30;72.60
14095;DHT22;18096;48.142;16.290;2023-07-20T10:49:58;26.30;73.30
14095;DHT22;18096;48.142;16.290;2023-07-20T10:52:41;26.30;72.80
14095;DHT22;18096;48.142;16.290;2023-07-20T10:55:19;26.40;72.70
14095;DHT22;18096;48.142;16.290;2023-07-20T10:58:07;26.40;71.40
14095;DHT22;18096;48.142;16.290;2023-07-20T11:00:34;26.40;70.50
14095;DHT22;18096;48.142;16.290;2023-07-20T11:02:59;26.40;70.60
14095;DHT22;18096;48.142;16.290;2023-07-20T11:05:35;26.40;70.70
14095;DHT22;18096;48.142;16.290;2023-07-20T11:08:04;26.40;71.30
14095;DHT22;18096;48.142;16.290;2023-07-20T11:10:30;26.40;71.70
14095;DHT22;18096;48.142;16.290;2023-07-20T11:13:20;26.40;71.80
14095;DHT22;18096;48.142;16.290;2023-07-20T11:15:47;26.40;71.30
14095;DHT22;18096;48.142;16.290;2023-07-20T11:18:13;26.40;70.50
14095;DHT22;18096;48.142;16.290;2023-07-20T11:20:39;26.40;70.80
14095;DHT22;18096;48.142;16.290;2023-07-20T11:23:05;26.40;70.80
14095;DHT22;18096;48.142;16.290;2023-07-20T11:25:40;26.40;71.50
14095;DHT22;18096;48.142;16.290;2023-07-20T11:28:09;26.50;71.40
14095;DHT22;18096;48.142;16.290;2023-07-20T11:30:38;26.50;71.10
14095;DHT22;18096;48.142;16.290;2023-07-20T11:33:05;26.50;70.30
14095;DHT22;18096;48.142;16.290;2023-07-20T11:35:34;26.50;69.20
14095;DHT22;18096;48.142;16.290;2023-07-20T11:38:00;26.50;68.60
14095;DHT22;18096;48.142;16.290;2023-07-20T11:40:26;26.60;69.70
14095;DHT22;18096;48.142;16.290;2023-07-20T11:42:52;26.70;70.90
14095;DHT22;18096;48.142;16.290;2023-07-20T11:45:19;26.70;70.20
14095;DHT22;18096;48.142;16.290;2023-07-20T11:47:45;26.80;69.80
14095;DHT22;18096;48.142;16.290;2023-07-20T11:50:11;26.80;69.00
14095;DHT22;18096;48.142;16.290;2023-07-20T11:52:39;26.70;68.50
14095;DHT22;18096;48.142;16.290;2023-07-20T11:55:06;26.70;68.70
14095;DHT22;18096;48.142;16.290;2023-07-20T11:57:32;26.70;68.50
14095;DHT22;18096;48.142;16.290;2023-07-20T12:00:02;26.60;67.70
14095;DHT22;18096;48.142;16.290;2023-07-20T12:02:31;26.70;67.60
14095;DHT22;18096;48.142;16.290;2023-07-20T12:04:57;26.70;67.70
14095;DHT22;18096;48.142;16.290;2023-07-20T12:07:26;26.70;67.60
14095;DHT22;18096;48.142;16.290;2023-07-20T12:10:09;26.80;68.00
14095;DHT22;18096;48.142;16.290;2023-07-20T12:12:38;26.80;67.80
14095;DHT22;18096;48.142;16.290;2023-07-20T12:15:24;26.80;66.90
14095;DHT22;18096;48.142;16.290;2023-07-20T12:17:56;26.90;66.40
14095;DHT22;18096;48.142;16.290;2023-07-20T12:22:51;26.90;66.20
14095;DHT22;18096;48.142;16.290;2023-07-20T12:25:17;26.90;66.40
14095;DHT22;18096;48.142;16.290;2023-07-20T12:27:45;26.90;66.30
14095;DHT22;18096;48.142;16.290;2023-07-20T12:30:12;26.90;66.10
14095;DHT22;18096;48.142;16.290;2023-07-20T12:32:39;26.80;64.70
14095;DHT22;18096;48.142;16.290;2023-07-20T12:35:05;26.90;64.50
14095;DHT22;18096;48.142;16.290;2023-07-20T12:37:31;26.80;64.50
14095;DHT22;18096;48.142;16.290;2023-07-20T12:39:57;26.80;64.60
14095;DHT22;18096;48.142;16.290;2023-07-20T12:42:23;26.80;64.30
14095;DHT22;18096;48.142;16.290;2023-07-20T12:44:49;26.80;64.60
14095;DHT22;18096;48.142;16.290;2023-07-20T12:47:17;26.80;63.50
14095;DHT22;18096;48.142;16.290;2023-07-20T12:49:44;26.80;62.60
14095;DHT22;18096;48.142;16.290;2023-07-20T12:52:11;26.80;61.40
14095;DHT22;18096;48.142;16.290;2023-07-20T12:54:36;26.80;62.00
14095;DHT22;18096;48.142;16.290;2023-07-20T12:57:02;26.80;62.10
14095;DHT22;18096;48.142;16.290;2023-07-20T12:59:29;26.80;62.10
14095;DHT22;18096;48.142;16.290;2023-07-20T13:01:54;26.80;61.90
14095;DHT22;18096;48.142;16.290;2023-07-20T13:04:20;26.80;61.60
14095;DHT22;18096;48.142;16.290;2023-07-20T13:06:45;26.80;62.00
14095;DHT22;18096;48.142;16.290;2023-07-20T13:09:11;26.90;62.60
14095;DHT22;18096;48.142;16.290;2023-07-20T13:11:37;26.90;63.00
14095;DHT22;18096;48.142;16.290;2023-07-20T13:14:02;26.90;62.40
14095;DHT22;18096;48.142;16.290;2023-07-20T13:16:28;26.90;62.10
14095;DHT22;18096;48.142;16.290;2023-07-20T13:18:54;26.90;61.50
14095;DHT22;18096;48.142;16.290;2023-07-20T13:21:19;26.90;61.40
14095;DHT22;18096;48.142;16.290;2023-07-20T13:23:48;26.80;61.30
14095;DHT22;18096;48.142;16.290;2023-07-20T13:26:17;26.90;61.50
14095;DHT22;18096;48.142;16.290;2023-07-20T13:28:43;27.00;62.30
14095;DHT22;18096;48.142;16.290;2023-07-20T13:31:08;27.00;62.60
14095;DHT22;18096;48.142;16.290;2023-07-20T13:33:37;27.10;61.80
14095;DHT22;18096;48.142;16.290;2023-07-20T13:36:03;27.10;61.20
14095;DHT22;18096;48.142;16.290;2023-07-20T13:38:31;27.20;60.80
14095;DHT22;18096;48.142;16.290;2023-07-20T13:40:57;27.20;60.50
14095;DHT22;18096;48.142;16.290;2023-07-20T13:43:22;27.20;60.90
14095;DHT22;18096;48.142;16.290;2023-07-20T13:45:48;27.10;61.70
14095;DHT22;18096;48.142;16.290;2023-07-20T13:48:14;27.20;60.00
14095;DHT22;18096;48.142;16.290;2023-07-20T13:50:40;27.20;60.00
14095;DHT22;18096;48.142;16.290;2023-07-20T13:53:06;27.10;60.00
14095;DHT22;18096;48.142;16.290;2023-07-20T13:55:31;27.20;60.10
14095;DHT22;18096;48.142;16.290;2023-07-20T13:57:59;27.20;60.10
14095;DHT22;18096;48.142;16.290;2023-07-20T14:00:24;27.20;59.60
14095;DHT22;18096;48.142;16.290;2023-07-20T14:02:52;27.30;59.80
14095;DHT22;18096;48.142;16.290;2023-07-20T14:05:18;27.30;60.00
14095;DHT22;18096;48.142;16.290;2023-07-20T14:07:44;27.30;58.70
14095;DHT22;18096;48.142;16.290;2023-07-20T14:10:10;27.30;58.90
14095;DHT22;18096;48.142;16.290;2023-07-20T14:12:36;27.30;59.10
14095;DHT22;18096;48.142;16.290;2023-07-20T14:15:01;27.30;58.90
14095;DHT22;18096;48.142;16.290;2023-07-20T14:17:27;27.40;59.30
14095;DHT22;18096;48.142;16.290;2023-07-20T14:19:53;27.30;59.60
14095;DHT22;18096;48.142;16.290;2023-07-20T14:22:19;27.40;59.90
14095;DHT22;18096;48.142;16.290;2023-07-20T14:24:44;27.40;59.80
14095;DHT22;18096;48.142;16.290;2023-07-20T14:27:10;27.40;59.90
14095;DHT22;18096;48.142;16.290;2023-07-20T14:29:36;27.40;60.30
14095;DHT22;18096;48.142;16.290;2023-07-20T14:32:02;27.40;60.30
14095;DHT22;18096;48.142;16.290;2023-07-20T14:34:29;27.40;60.00
14095;DHT22;18096;48.142;16.290;2023-07-20T14:36:54;27.40;60.10
14095;DHT22;18096;48.142;16.290;2023-07-20T14:39:20;27.40;60.00
14095;DHT22;18096;48.142;16.290;2023-07-20T14:41:46;27.40;59.90
14095;DHT22;18096;48.142;16.290;2023-07-20T14:44:11;27.30;59.60
14095;DHT22;18096;48.142;16.290;2023-07-20T14:46:37;27.40;59.60
14095;DHT22;18096;48.142;16.290;2023-07-20T14:49:03;27.40;60.10
14095;DHT22;18096;48.142;16.290;2023-07-20T14:51:28;27.40;59.90
14095;DHT22;18096;48.142;16.290;2023-07-20T14:53:59;27.50;60.20
14095;DHT22;18096;48.142;16.290;2023-07-20T14:56:25;27.50;59.80
14095;DHT22;18096;48.142;16.290;2023-07-20T14:58:51;27.50;59.10
14095;DHT22;18096;48.142;16.290;2023-07-20T15:01:16;27.50;59.30
14095;DHT22;18096;48.142;16.290;2023-07-20T15:03:42;27.50;59.20
14095;DHT22;18096;48.142;16.290;2023-07-20T15:06:10;27.50;58.80
14095;DHT22;18096;48.142;16.290;2023-07-20T15:08:36;27.50;58.70
14095;DHT22;18096;48.142;16.290;2023-07-20T15:11:02;27.50;58.90
14095;DHT22;18096;48.142;16.290;2023-07-20T15:13:28;27.50;59.00
14095;DHT22;18096;48.142;16.290;2023-07-20T15:15:54;27.50;59.30
14095;DHT22;18096;48.142;16.290;2023-07-20T15:18:19;27.50;59.20
14095;DHT22;18096;48.142;16.290;2023-07-20T15:20:45;27.50;59.40
14095;DHT22;18096;48.142;16.290;2023-07-20T15:23:11;27.50;59.20
14095;DHT22;18096;48.142;16.290;2023-07-20T15:25:36;27.50;58.80
14095;DHT22;18096;48.142;16.290;2023-07-20T15:28:02;27.50;59.70
14095;DHT22;18096;48.142;16.290;2023-07-20T15:30:28;27.50;58.90